sensor_id;sensor_type;location;lat;lon;timestamp;P1;durP1;ratioP1;P2;durP2;ratioP2
22005;SDS011;11167;46.988;15.470;2023-04-19T00:01:39;1.90;;;1.22;;
22005;SDS011;11167;46.988;15.470;2023-04-19T00:03:40;1.98;;;1.65;;
22005;SDS011;11167;46.988;15.470;2023-04-19T00:05:41;1.70;;;1.35;;
22005;SDS011;11167;46.988;15.470;2023-04-19T00:07:43;1.52;;;1.20;;
22005;SDS011;11167;46.988;15.470;2023-04-19T00:09:44;1.87;;;1.35;;
22005;SDS011;11167;46.988;15.470;2023-04-19T00:11:45;2.37;;;1.30;;
22005;SDS011;11167;46.988;15.470;2023-04-19T00:13:46;1.60;;;1.40;;
22005;SDS011;11167;46.988;15.470;2023-04-19T00:15:48;2.67;;;1.30;;
22005;SDS011;11167;46.988;15.470;2023-04-19T00:17:49;1.90;;;1.20;;
22005;SDS011;11167;46.988;15.470;2023-04-19T00:19:51;1.40;;;1.25;;
22005;SDS011;11167;46.988;15.470;2023-04-19T00:21:52;2.02;;;1.47;;
22005;SDS011;11167;46.988;15.470;2023-04-19T00:23:53;1.80;;;1.57;;
22005;SDS011;11167;46.988;15.470;2023-04-19T00:25:54;1.42;;;1.32;;
22005;SDS011;11167;46.988;15.470;2023-04-19T00:27:56;1.85;;;1.32;;
22005;SDS011;11167;46.988;15.470;2023-04-19T00:29:57;2.25;;;1.42;;
22005;SDS011;11167;46.988;15.470;2023-04-19T00:31:58;1.57;;;1.35;;
22005;SDS011;11167;46.988;15.470;2023-04-19T00:33:59;2.10;;;1.40;;
22005;SDS011;11167;46.988;15.470;2023-04-19T00:36:00;1.82;;;1.45;;
22005;SDS011;11167;46.988;15.470;2023-04-19T00:38:01;2.02;;;1.60;;
22005;SDS011;11167;46.988;15.470;2023-04-19T00:40:03;1.80;;;1.40;;
22005;SDS011;11167;46.988;15.470;2023-04-19T00:42:05;2.33;;;1.50;;
22005;SDS011;11167;46.988;15.470;2023-04-19T00:44:06;1.80;;;1.42;;
22005;SDS011;11167;46.988;15.470;2023-04-19T00:46:07;1.60;;;1.50;;
22005;SDS011;11167;46.988;15.470;2023-04-19T00:48:09;1.67;;;1.50;;
22005;SDS011;11167;46.988;15.470;2023-04-19T00:50:10;2.42;;;1.47;;
22005;SDS011;11167;46.988;15.470;2023-04-19T00:52:12;2.08;;;1.72;;
22005;SDS011;11167;46.988;15.470;2023-04-19T00:54:13;2.58;;;1.98;;
22005;SDS011;11167;46.988;15.470;2023-04-19T00:56:15;2.35;;;1.82;;
22005;SDS011;11167;46.988;15.470;2023-04-19T00:58:18;2.47;;;1.90;;
22005;SDS011;11167;46.988;15.470;2023-04-19T01:00:19;2.17;;;1.55;;
22005;SDS011;11167;46.988;15.470;2023-04-19T01:02:20;2.40;;;1.82;;
22005;SDS011;11167;46.988;15.470;2023-04-19T01:04:21;2.62;;;1.87;;
22005;SDS011;11167;46.988;15.470;2023-04-19T01:06:25;2.65;;;2.05;;
22005;SDS011;11167;46.988;15.470;2023-04-19T01:08:34;2.20;;;1.62;;
22005;SDS011;11167;46.988;15.470;2023-04-19T01:10:35;2.72;;;1.80;;
22005;SDS011;11167;46.988;15.470;2023-04-19T01:12:36;1.62;;;1.50;;
22005;SDS011;11167;46.988;15.470;2023-04-19T01:14:37;2.05;;;1.62;;
22005;SDS011;11167;46.988;15.470;2023-04-19T01:16:38;2.33;;;1.60;;
22005;SDS011;11167;46.988;15.470;2023-04-19T01:18:39;2.15;;;1.65;;
22005;SDS011;11167;46.988;15.470;2023-04-19T01:20:40;2.00;;;1.80;;
22005;SDS011;11167;46.988;15.470;2023-04-19T01:22:41;1.87;;;1.70;;
22005;SDS011;11167;46.988;15.470;2023-04-19T01:24:43;1.90;;;1.50;;
22005;SDS011;11167;46.988;15.470;2023-04-19T01:26:44;1.65;;;1.37;;
22005;SDS011;11167;46.988;15.470;2023-04-19T01:28:45;1.57;;;1.47;;
22005;SDS011;11167;46.988;15.470;2023-04-19T01:33:07;1.40;;;1.30;;
22005;SDS011;11167;46.988;15.470;2023-04-19T01:35:08;1.82;;;1.30;;
22005;SDS011;11167;46.988;15.470;2023-04-19T01:37:10;2.27;;;1.80;;
22005;SDS011;11167;46.988;15.470;2023-04-19T01:39:11;1.55;;;1.42;;
22005;SDS011;11167;46.988;15.470;2023-04-19T01:41:13;2.12;;;1.57;;
22005;SDS011;11167;46.988;15.470;2023-04-19T01:43:14;2.37;;;1.57;;
22005;SDS011;11167;46.988;15.470;2023-04-19T01:45:16;1.67;;;1.40;;
22005;SDS011;11167;46.988;15.470;2023-04-19T01:47:18;2.20;;;1.55;;
22005;SDS011;11167;46.988;15.470;2023-04-19T01:49:20;1.72;;;1.52;;
22005;SDS011;11167;46.988;15.470;2023-04-19T01:51:21;1.98;;;1.40;;
22005;SDS011;11167;46.988;15.470;2023-04-19T01:53:22;1.75;;;1.60;;
22005;SDS011;11167;46.988;15.470;2023-04-19T01:55:23;2.05;;;1.30;;
22005;SDS011;11167;46.988;15.470;2023-04-19T01:57:24;2.10;;;1.60;;
22005;SDS011;11167;46.988;15.470;2023-04-19T01:59:26;2.08;;;1.77;;
22005;SDS011;11167;46.988;15.470;2023-04-19T02:01:27;1.70;;;1.50;;
22005;SDS011;11167;46.988;15.470;2023-04-19T02:03:28;1.85;;;1.50;;
22005;SDS011;11167;46.988;15.470;2023-04-19T02:07:50;2.40;;;1.67;;
22005;SDS011;11167;46.988;15.470;2023-04-19T02:09:51;2.47;;;1.52;;
22005;SDS011;11167;46.988;15.470;2023-04-19T02:11:52;1.92;;;1.40;;
22005;SDS011;11167;46.988;15.470;2023-04-19T02:13:53;2.17;;;1.50;;
22005;SDS011;11167;46.988;15.470;2023-04-19T02:15:55;1.70;;;1.60;;
22005;SDS011;11167;46.988;15.470;2023-04-19T02:17:56;1.60;;;1.50;;
22005;SDS011;11167;46.988;15.470;2023-04-19T02:19:59;1.85;;;1.40;;
22005;SDS011;11167;46.988;15.470;2023-04-19T02:22:00;5.12;;;1.57;;
22005;SDS011;11167;46.988;15.470;2023-04-19T02:24:01;2.50;;;1.77;;
22005;SDS011;11167;46.988;15.470;2023-04-19T02:26:02;2.08;;;1.45;;
22005;SDS011;11167;46.988;15.470;2023-04-19T02:28:03;1.87;;;1.40;;
22005;SDS011;11167;46.988;15.470;2023-04-19T02:30:06;1.57;;;1.40;;
22005;SDS011;11167;46.988;15.470;2023-04-19T02:32:08;1.82;;;1.47;;
22005;SDS011;11167;46.988;15.470;2023-04-19T02:34:11;1.67;;;1.20;;
22005;SDS011;11167;46.988;15.470;2023-04-19T02:36:12;1.80;;;1.30;;
22005;SDS011;11167;46.988;15.470;2023-04-19T02:38:14;1.82;;;1.65;;
22005;SDS011;11167;46.988;15.470;2023-04-19T02:40:15;1.75;;;1.30;;
22005;SDS011;11167;46.988;15.470;2023-04-19T02:42:16;1.52;;;1.42;;
22005;SDS011;11167;46.988;15.470;2023-04-19T02:44:17;1.92;;;1.50;;
22005;SDS011;11167;46.988;15.470;2023-04-19T02:46:18;1.70;;;1.50;;
22005;SDS011;11167;46.988;15.470;2023-04-19T02:48:20;1.62;;;1.40;;
22005;SDS011;11167;46.988;15.470;2023-04-19T02:50:21;1.55;;;1.30;;
22005;SDS011;11167;46.988;15.470;2023-04-19T02:52:22;1.60;;;1.20;;
22005;SDS011;11167;46.988;15.470;2023-04-19T02:54:25;1.57;;;1.30;;
22005;SDS011;11167;46.988;15.470;2023-04-19T02:56:27;1.98;;;1.45;;
22005;SDS011;11167;46.988;15.470;2023-04-19T02:58:28;1.92;;;1.20;;
22005;SDS011;11167;46.988;15.470;2023-04-19T03:00:29;1.90;;;1.30;;
22005;SDS011;11167;46.988;15.470;2023-04-19T03:02:30;1.82;;;1.42;;
22005;SDS011;11167;46.988;15.470;2023-04-19T03:04:31;1.82;;;1.40;;
22005;SDS011;11167;46.988;15.470;2023-04-19T03:06:33;1.30;;;1.20;;
22005;SDS011;11167;46.988;15.470;2023-04-19T03:08:36;1.65;;;1.30;;
22005;SDS011;11167;46.988;15.470;2023-04-19T03:10:37;1.72;;;1.20;;
22005;SDS011;11167;46.988;15.470;2023-04-19T03:12:38;1.55;;;1.45;;
22005;SDS011;11167;46.988;15.470;2023-04-19T03:14:39;1.27;;;1.10;;
22005;SDS011;11167;46.988;15.470;2023-04-19T03:16:41;1.47;;;1.37;;
22005;SDS011;11167;46.988;15.470;2023-04-19T03:18:42;1.40;;;1.25;;
22005;SDS011;11167;46.988;15.470;2023-04-19T03:20:43;1.40;;;1.25;;
22005;SDS011;11167;46.988;15.470;2023-04-19T03:22:44;1.70;;;1.40;;
22005;SDS011;11167;46.988;15.470;2023-04-19T03:24:45;1.95;;;1.50;;
22005;SDS011;11167;46.988;15.470;2023-04-19T03:26:46;2.33;;;1.22;;
22005;SDS011;11167;46.988;15.470;2023-04-19T03:28:47;1.72;;;1.40;;
22005;SDS011;11167;46.988;15.470;2023-04-19T03:30:48;1.42;;;1.10;;
22005;SDS011;11167;46.988;15.470;2023-04-19T03:32:50;1.65;;;1.42;;
22005;SDS011;11167;46.988;15.470;2023-04-19T03:34:51;1.72;;;1.25;;
22005;SDS011;11167;46.988;15.470;2023-04-19T03:36:52;1.32;;;1.22;;
22005;SDS011;11167;46.988;15.470;2023-04-19T03:38:53;1.77;;;1.30;;
22005;SDS011;11167;46.988;15.470;2023-04-19T03:40:54;2.33;;;1.62;;
22005;SDS011;11167;46.988;15.470;2023-04-19T03:42:57;1.10;;;1.00;;
22005;SDS011;11167;46.988;15.470;2023-04-19T03:44:59;1.35;;;1.25;;
22005;SDS011;11167;46.988;15.470;2023-04-19T03:47:00;1.77;;;1.20;;
22005;SDS011;11167;46.988;15.470;2023-04-19T03:49:01;1.30;;;1.20;;
22005;SDS011;11167;46.988;15.470;2023-04-19T03:51:02;1.47;;;1.20;;
22005;SDS011;11167;46.988;15.470;2023-04-19T03:53:03;1.17;;;1.07;;
22005;SDS011;11167;46.988;15.470;2023-04-19T03:55:05;1.87;;;1.22;;
22005;SDS011;11167;46.988;15.470;2023-04-19T03:57:09;1.67;;;1.50;;
22005;SDS011;11167;46.988;15.470;2023-04-19T03:59:12;2.30;;;1.10;;
22005;SDS011;11167;46.988;15.470;2023-04-19T04:01:21;1.00;;;0.90;;
22005;SDS011;11167;46.988;15.470;2023-04-19T04:03:20;1.10;;;1.00;;
22005;SDS011;11167;46.988;15.470;2023-04-19T04:05:21;1.60;;;1.20;;
22005;SDS011;11167;46.988;15.470;2023-04-19T04:07:22;1.98;;;1.37;;
22005;SDS011;11167;46.988;15.470;2023-04-19T04:09:24;1.40;;;1.30;;
22005;SDS011;11167;46.988;15.470;2023-04-19T04:11:25;1.10;;;0.90;;
22005;SDS011;11167;46.988;15.470;2023-04-19T04:13:26;1.10;;;1.00;;
22005;SDS011;11167;46.988;15.470;2023-04-19T04:15:27;1.35;;;1.10;;
22005;SDS011;11167;46.988;15.470;2023-04-19T04:17:28;1.07;;;0.85;;
22005;SDS011;11167;46.988;15.470;2023-04-19T04:19:30;1.00;;;0.80;;
22005;SDS011;11167;46.988;15.470;2023-04-19T04:21:31;1.20;;;1.05;;
22005;SDS011;11167;46.988;15.470;2023-04-19T04:23:33;1.30;;;1.10;;
22005;SDS011;11167;46.988;15.470;2023-04-19T04:25:34;1.20;;;1.10;;
22005;SDS011;11167;46.988;15.470;2023-04-19T04:27:37;1.47;;;1.30;;
22005;SDS011;11167;46.988;15.470;2023-04-19T04:29:38;1.20;;;1.00;;
22005;SDS011;11167;46.988;15.470;2023-04-19T04:31:40;1.42;;;1.10;;
22005;SDS011;11167;46.988;15.470;2023-04-19T04:33:42;1.15;;;1.00;;
22005;SDS011;11167;46.988;15.470;2023-04-19T04:35:43;1.05;;;0.93;;
22005;SDS011;11167;46.988;15.470;2023-04-19T04:37:45;1.60;;;1.05;;
22005;SDS011;11167;46.988;15.470;2023-04-19T04:39:48;1.32;;;1.22;;
22005;SDS011;11167;46.988;15.470;2023-04-19T04:41:49;1.37;;;1.20;;
22005;SDS011;11167;46.988;15.470;2023-04-19T04:43:51;1.82;;;1.30;;
22005;SDS011;11167;46.988;15.470;2023-04-19T04:45:52;1.15;;;1.05;;
22005;SDS011;11167;46.988;15.470;2023-04-19T04:47:55;1.70;;;1.20;;
22005;SDS011;11167;46.988;15.470;2023-04-19T04:49:56;1.10;;;1.00;;
22005;SDS011;11167;46.988;15.470;2023-04-19T04:51:57;1.32;;;1.15;;
22005;SDS011;11167;46.988;15.470;2023-04-19T04:53:58;1.98;;;1.15;;
22005;SDS011;11167;46.988;15.470;2023-04-19T04:55:59;1.30;;;1.20;;
22005;SDS011;11167;46.988;15.470;2023-04-19T04:58:00;1.57;;;1.25;;
22005;SDS011;11167;46.988;15.470;2023-04-19T05:00:02;1.37;;;1.22;;
22005;SDS011;11167;46.988;15.470;2023-04-19T05:02:05;1.35;;;1.10;;
22005;SDS011;11167;46.988;15.470;2023-04-19T05:04:06;1.47;;;1.20;;
22005;SDS011;11167;46.988;15.470;2023-04-19T05:06:07;2.60;;;1.30;;
22005;SDS011;11167;46.988;15.470;2023-04-19T05:08:08;2.95;;;1.32;;
22005;SDS011;11167;46.988;15.470;2023-04-19T05:10:09;1.40;;;1.30;;
22005;SDS011;11167;46.988;15.470;2023-04-19T05:12:10;1.60;;;1.50;;
22005;SDS011;11167;46.988;15.470;2023-04-19T05:14:11;1.60;;;1.30;;
22005;SDS011;11167;46.988;15.470;2023-04-19T05:16:13;1.65;;;1.30;;
22005;SDS011;11167;46.988;15.470;2023-04-19T05:18:14;1.75;;;1.40;;
22005;SDS011;11167;46.988;15.470;2023-04-19T05:20:17;1.82;;;1.40;;
22005;SDS011;11167;46.988;15.470;2023-04-19T05:22:18;2.27;;;1.40;;
22005;SDS011;11167;46.988;15.470;2023-04-19T05:24:19;1.65;;;1.40;;
22005;SDS011;11167;46.988;15.470;2023-04-19T05:26:21;1.98;;;1.70;;
22005;SDS011;11167;46.988;15.470;2023-04-19T05:28:22;2.30;;;1.50;;
22005;SDS011;11167;46.988;15.470;2023-04-19T05:30:23;2.33;;;1.55;;
22005;SDS011;11167;46.988;15.470;2023-04-19T05:32:24;1.60;;;1.50;;
22005;SDS011;11167;46.988;15.470;2023-04-19T05:34:25;3.42;;;1.70;;
22005;SDS011;11167;46.988;15.470;2023-04-19T05:36:27;2.02;;;1.70;;
22005;SDS011;11167;46.988;15.470;2023-04-19T05:38:29;2.27;;;2.00;;
22005;SDS011;11167;46.988;15.470;2023-04-19T05:40:30;2.27;;;1.70;;
22005;SDS011;11167;46.988;15.470;2023-04-19T05:42:31;2.72;;;2.00;;
22005;SDS011;11167;46.988;15.470;2023-04-19T05:44:32;2.55;;;2.00;;
22005;SDS011;11167;46.988;15.470;2023-04-19T05:46:33;2.27;;;1.80;;
22005;SDS011;11167;46.988;15.470;2023-04-19T05:48:35;2.80;;;1.92;;
22005;SDS011;11167;46.988;15.470;2023-04-19T05:50:36;2.80;;;1.90;;
22005;SDS011;11167;46.988;15.470;2023-04-19T05:52:38;2.55;;;2.17;;
22005;SDS011;11167;46.988;15.470;2023-04-19T05:54:40;2.45;;;2.02;;
22005;SDS011;11167;46.988;15.470;2023-04-19T05:56:43;2.10;;;1.90;;
22005;SDS011;11167;46.988;15.470;2023-04-19T05:58:44;2.45;;;2.02;;
22005;SDS011;11167;46.988;15.470;2023-04-19T06:00:45;2.10;;;1.90;;
22005;SDS011;11167;46.988;15.470;2023-04-19T06:02:48;5.50;;;2.27;;
22005;SDS011;11167;46.988;15.470;2023-04-19T06:04:49;2.80;;;2.00;;
22005;SDS011;11167;46.988;15.470;2023-04-19T06:06:50;2.70;;;2.12;;
22005;SDS011;11167;46.988;15.470;2023-04-19T06:08:51;2.92;;;2.22;;
22005;SDS011;11167;46.988;15.470;2023-04-19T06:10:53;2.30;;;2.10;;
22005;SDS011;11167;46.988;15.470;2023-04-19T06:12:55;3.17;;;2.05;;
22005;SDS011;11167;46.988;15.470;2023-04-19T06:14:56;2.77;;;1.90;;
22005;SDS011;11167;46.988;15.470;2023-04-19T06:16:57;3.08;;;2.10;;
22005;SDS011;11167;46.988;15.470;2023-04-19T06:18:58;2.75;;;2.12;;
22005;SDS011;11167;46.988;15.470;2023-04-19T06:21:00;3.25;;;2.25;;
22005;SDS011;11167;46.988;15.470;2023-04-19T06:23:02;3.37;;;2.00;;
22005;SDS011;11167;46.988;15.470;2023-04-19T06:25:03;2.85;;;2.15;;
22005;SDS011;11167;46.988;15.470;2023-04-19T06:27:05;2.85;;;2.10;;
22005;SDS011;11167;46.988;15.470;2023-04-19T06:29:06;2.83;;;2.12;;
22005;SDS011;11167;46.988;15.470;2023-04-19T06:31:07;2.98;;;2.15;;
22005;SDS011;11167;46.988;15.470;2023-04-19T06:33:08;2.50;;;2.20;;
22005;SDS011;11167;46.988;15.470;2023-04-19T06:35:10;3.08;;;2.10;;
22005;SDS011;11167;46.988;15.470;2023-04-19T06:37:11;4.90;;;2.27;;
22005;SDS011;11167;46.988;15.470;2023-04-19T06:39:13;2.60;;;2.17;;
22005;SDS011;11167;46.988;15.470;2023-04-19T06:41:15;2.83;;;2.15;;
22005;SDS011;11167;46.988;15.470;2023-04-19T06:43:17;3.20;;;2.15;;
22005;SDS011;11167;46.988;15.470;2023-04-19T06:45:18;3.12;;;2.20;;
22005;SDS011;11167;46.988;15.470;2023-04-19T06:47:19;2.87;;;2.30;;
22005;SDS011;11167;46.988;15.470;2023-04-19T06:49:21;3.12;;;2.40;;
22005;SDS011;11167;46.988;15.470;2023-04-19T06:51:22;4.12;;;2.67;;
22005;SDS011;11167;46.988;15.470;2023-04-19T06:53:24;3.52;;;2.40;;
22005;SDS011;11167;46.988;15.470;2023-04-19T06:55:26;3.87;;;2.92;;
22005;SDS011;11167;46.988;15.470;2023-04-19T06:57:28;3.25;;;2.42;;
22005;SDS011;11167;46.988;15.470;2023-04-19T06:59:29;3.20;;;2.55;;
22005;SDS011;11167;46.988;15.470;2023-04-19T07:01:31;4.50;;;2.72;;
22005;SDS011;11167;46.988;15.470;2023-04-19T07:03:33;5.15;;;2.65;;
22005;SDS011;11167;46.988;15.470;2023-04-19T07:05:35;3.17;;;2.55;;
22005;SDS011;11167;46.988;15.470;2023-04-19T07:07:36;3.05;;;2.65;;
22005;SDS011;11167;46.988;15.470;2023-04-19T07:09:37;3.20;;;2.55;;
22005;SDS011;11167;46.988;15.470;2023-04-19T07:11:38;3.65;;;2.60;;
22005;SDS011;11167;46.988;15.470;2023-04-19T07:13:39;4.97;;;2.85;;
22005;SDS011;11167;46.988;15.470;2023-04-19T07:15:40;3.15;;;2.33;;
22005;SDS011;11167;46.988;15.470;2023-04-19T07:17:41;2.65;;;2.27;;
22005;SDS011;11167;46.988;15.470;2023-04-19T07:19:45;2.72;;;2.40;;
22005;SDS011;11167;46.988;15.470;2023-04-19T07:21:50;4.10;;;2.87;;
22005;SDS011;11167;46.988;15.470;2023-04-19T07:23:51;3.55;;;2.80;;
22005;SDS011;11167;46.988;15.470;2023-04-19T07:25:52;3.02;;;2.45;;
22005;SDS011;11167;46.988;15.470;2023-04-19T07:27:54;3.35;;;2.45;;
22005;SDS011;11167;46.988;15.470;2023-04-19T07:29:56;2.87;;;2.02;;
22005;SDS011;11167;46.988;15.470;2023-04-19T07:31:57;2.12;;;1.92;;
22005;SDS011;11167;46.988;15.470;2023-04-19T07:34:00;3.02;;;2.20;;
22005;SDS011;11167;46.988;15.470;2023-04-19T07:36:01;3.00;;;2.25;;
22005;SDS011;11167;46.988;15.470;2023-04-19T07:38:02;3.40;;;2.25;;
22005;SDS011;11167;46.988;15.470;2023-04-19T07:40:03;2.72;;;2.45;;
22005;SDS011;11167;46.988;15.470;2023-04-19T07:42:05;3.08;;;2.72;;
22005;SDS011;11167;46.988;15.470;2023-04-19T07:44:06;2.62;;;2.42;;
22005;SDS011;11167;46.988;15.470;2023-04-19T07:46:08;2.83;;;2.15;;
22005;SDS011;11167;46.988;15.470;2023-04-19T07:48:10;2.95;;;2.37;;
22005;SDS011;11167;46.988;15.470;2023-04-19T07:50:12;2.65;;;2.25;;
22005;SDS011;11167;46.988;15.470;2023-04-19T07:52:13;2.37;;;2.17;;
22005;SDS011;11167;46.988;15.470;2023-04-19T07:54:15;3.77;;;2.20;;
22005;SDS011;11167;46.988;15.470;2023-04-19T07:56:17;3.30;;;2.58;;
22005;SDS011;11167;46.988;15.470;2023-04-19T07:58:19;3.45;;;2.60;;
22005;SDS011;11167;46.988;15.470;2023-04-19T08:00:20;3.15;;;2.25;;
22005;SDS011;11167;46.988;15.470;2023-04-19T08:02:24;2.25;;;2.05;;
22005;SDS011;11167;46.988;15.470;2023-04-19T08:04:27;2.77;;;2.12;;
22005;SDS011;11167;46.988;15.470;2023-04-19T08:06:28;3.42;;;2.40;;
22005;SDS011;11167;46.988;15.470;2023-04-19T08:08:30;2.77;;;2.42;;
22005;SDS011;11167;46.988;15.470;2023-04-19T08:10:32;2.72;;;2.10;;
22005;SDS011;11167;46.988;15.470;2023-04-19T08:12:34;2.83;;;2.30;;
22005;SDS011;11167;46.988;15.470;2023-04-19T08:14:35;2.77;;;2.12;;
22005;SDS011;11167;46.988;15.470;2023-04-19T08:16:38;2.87;;;2.50;;
22005;SDS011;11167;46.988;15.470;2023-04-19T08:18:39;2.47;;;2.10;;
22005;SDS011;11167;46.988;15.470;2023-04-19T08:20:40;2.85;;;2.35;;
22005;SDS011;11167;46.988;15.470;2023-04-19T08:22:42;4.12;;;2.40;;
22005;SDS011;11167;46.988;15.470;2023-04-19T08:24:43;2.98;;;2.47;;
22005;SDS011;11167;46.988;15.470;2023-04-19T08:26:44;4.33;;;2.75;;
22005;SDS011;11167;46.988;15.470;2023-04-19T08:28:47;3.58;;;2.67;;
22005;SDS011;11167;46.988;15.470;2023-04-19T08:30:50;3.10;;;2.50;;
22005;SDS011;11167;46.988;15.470;2023-04-19T08:32:51;2.83;;;2.20;;
22005;SDS011;11167;46.988;15.470;2023-04-19T08:34:52;3.92;;;2.70;;
22005;SDS011;11167;46.988;15.470;2023-04-19T08:36:53;3.27;;;2.45;;
22005;SDS011;11167;46.988;15.470;2023-04-19T08:38:54;2.50;;;2.30;;
22005;SDS011;11167;46.988;15.470;2023-04-19T08:40:55;2.87;;;2.20;;
22005;SDS011;11167;46.988;15.470;2023-04-19T08:42:57;3.25;;;2.45;;
22005;SDS011;11167;46.988;15.470;2023-04-19T08:45:01;3.40;;;2.37;;
22005;SDS011;11167;46.988;15.470;2023-04-19T08:47:05;3.33;;;2.77;;
22005;SDS011;11167;46.988;15.470;2023-04-19T08:49:08;2.80;;;2.47;;
22005;SDS011;11167;46.988;15.470;2023-04-19T08:51:10;2.55;;;2.33;;
22005;SDS011;11167;46.988;15.470;2023-04-19T08:53:13;3.02;;;2.55;;
22005;SDS011;11167;46.988;15.470;2023-04-19T08:55:15;4.78;;;2.60;;
22005;SDS011;11167;46.988;15.470;2023-04-19T08:57:18;3.98;;;2.52;;
22005;SDS011;11167;46.988;15.470;2023-04-19T08:59:19;3.27;;;2.40;;
22005;SDS011;11167;46.988;15.470;2023-04-19T09:01:20;2.50;;;2.30;;
22005;SDS011;11167;46.988;15.470;2023-04-19T09:03:22;2.80;;;2.35;;
22005;SDS011;11167;46.988;15.470;2023-04-19T09:05:23;2.47;;;2.27;;
22005;SDS011;11167;46.988;15.470;2023-04-19T09:07:26;2.98;;;2.20;;
22005;SDS011;11167;46.988;15.470;2023-04-19T09:09:28;2.50;;;2.20;;
22005;SDS011;11167;46.988;15.470;2023-04-19T09:11:39;2.77;;;2.50;;
22005;SDS011;11167;46.988;15.470;2023-04-19T09:13:39;2.33;;;2.10;;
22005;SDS011;11167;46.988;15.470;2023-04-19T09:15:42;2.65;;;2.27;;
22005;SDS011;11167;46.988;15.470;2023-04-19T09:17:45;4.30;;;2.20;;
22005;SDS011;11167;46.988;15.470;2023-04-19T09:19:50;4.47;;;2.27;;
22005;SDS011;11167;46.988;15.470;2023-04-19T09:21:53;2.60;;;2.20;;
22005;SDS011;11167;46.988;15.470;2023-04-19T09:23:54;4.33;;;2.17;;
22005;SDS011;11167;46.988;15.470;2023-04-19T09:25:56;2.98;;;2.52;;
22005;SDS011;11167;46.988;15.470;2023-04-19T09:28:12;2.30;;;2.10;;
22005;SDS011;11167;46.988;15.470;2023-04-19T09:30:14;4.08;;;2.65;;
22005;SDS011;11167;46.988;15.470;2023-04-19T09:32:17;2.90;;;2.35;;
22005;SDS011;11167;46.988;15.470;2023-04-19T09:34:19;3.05;;;2.33;;
22005;SDS011;11167;46.988;15.470;2023-04-19T09:38:47;3.02;;;2.52;;
22005;SDS011;11167;46.988;15.470;2023-04-19T09:40:49;2.85;;;2.55;;
22005;SDS011;11167;46.988;15.470;2023-04-19T09:42:50;2.55;;;2.05;;
22005;SDS011;11167;46.988;15.470;2023-04-19T09:44:55;2.62;;;2.20;;
22005;SDS011;11167;46.988;15.470;2023-04-19T09:46:57;3.05;;;2.40;;
22005;SDS011;11167;46.988;15.470;2023-04-19T09:51:22;2.30;;;2.10;;
22005;SDS011;11167;46.988;15.470;2023-04-19T09:53:25;2.95;;;2.00;;
22005;SDS011;11167;46.988;15.470;2023-04-19T09:55:27;2.40;;;2.10;;
22005;SDS011;11167;46.988;15.470;2023-04-19T09:57:28;3.02;;;2.00;;
22005;SDS011;11167;46.988;15.470;2023-04-19T09:59:29;2.10;;;1.90;;
22005;SDS011;11167;46.988;15.470;2023-04-19T10:01:32;2.33;;;2.12;;
22005;SDS011;11167;46.988;15.470;2023-04-19T10:03:41;2.22;;;2.02;;
22005;SDS011;11167;46.988;15.470;2023-04-19T10:05:47;2.30;;;2.10;;
22005;SDS011;11167;46.988;15.470;2023-04-19T10:07:49;2.92;;;2.30;;
22005;SDS011;11167;46.988;15.470;2023-04-19T10:09:54;2.15;;;1.92;;
22005;SDS011;11167;46.988;15.470;2023-04-19T10:11:57;2.10;;;1.90;;
22005;SDS011;11167;46.988;15.470;2023-04-19T10:14:00;2.08;;;1.87;;
22005;SDS011;11167;46.988;15.470;2023-04-19T10:16:04;1.90;;;1.70;;
22005;SDS011;11167;46.988;15.470;2023-04-19T10:18:05;2.40;;;2.12;;
22005;SDS011;11167;46.988;15.470;2023-04-19T10:20:16;2.17;;;1.75;;
22005;SDS011;11167;46.988;15.470;2023-04-19T10:22:13;2.10;;;1.90;;
22005;SDS011;11167;46.988;15.470;2023-04-19T10:24:15;2.15;;;1.70;;
22005;SDS011;11167;46.988;15.470;2023-04-19T10:26:18;2.27;;;2.08;;
22005;SDS011;11167;46.988;15.470;2023-04-19T10:28:19;3.20;;;2.10;;
22005;SDS011;11167;46.988;15.470;2023-04-19T10:30:22;3.85;;;1.90;;
22005;SDS011;11167;46.988;15.470;2023-04-19T10:32:26;2.37;;;2.10;;
22005;SDS011;11167;46.988;15.470;2023-04-19T10:34:38;1.85;;;1.70;;
22005;SDS011;11167;46.988;15.470;2023-04-19T10:36:40;2.20;;;1.85;;
22005;SDS011;11167;46.988;15.470;2023-04-19T10:38:45;2.02;;;1.87;;
22005;SDS011;11167;46.988;15.470;2023-04-19T10:45:35;2.87;;;2.60;;
22005;SDS011;11167;46.988;15.470;2023-04-19T10:47:40;3.47;;;2.60;;
22005;SDS011;11167;46.988;15.470;2023-04-19T10:49:44;3.00;;;2.50;;
22005;SDS011;11167;46.988;15.470;2023-04-19T10:51:49;2.87;;;2.55;;
22005;SDS011;11167;46.988;15.470;2023-04-19T10:53:58;3.58;;;2.90;;
22005;SDS011;11167;46.988;15.470;2023-04-19T10:56:02;3.35;;;2.85;;
22005;SDS011;11167;46.988;15.470;2023-04-19T10:58:04;3.65;;;2.90;;
22005;SDS011;11167;46.988;15.470;2023-04-19T11:00:21;3.90;;;3.50;;
22005;SDS011;11167;46.988;15.470;2023-04-19T11:02:28;4.03;;;3.45;;
22005;SDS011;11167;46.988;15.470;2023-04-19T11:06:54;3.77;;;3.47;;
22005;SDS011;11167;46.988;15.470;2023-04-19T11:08:56;3.90;;;3.60;;
22005;SDS011;11167;46.988;15.470;2023-04-19T11:10:57;4.10;;;3.12;;
22005;SDS011;11167;46.988;15.470;2023-04-19T11:12:58;3.50;;;3.15;;
22005;SDS011;11167;46.988;15.470;2023-04-19T11:15:00;4.22;;;3.70;;
22005;SDS011;11167;46.988;15.470;2023-04-19T11:17:03;3.62;;;3.33;;
22005;SDS011;11167;46.988;15.470;2023-04-19T11:21:19;4.50;;;3.80;;
22005;SDS011;11167;46.988;15.470;2023-04-19T11:25:41;3.90;;;3.50;;
22005;SDS011;11167;46.988;15.470;2023-04-19T11:27:46;5.07;;;3.80;;
22005;SDS011;11167;46.988;15.470;2023-04-19T11:29:48;4.17;;;3.77;;
22005;SDS011;11167;46.988;15.470;2023-04-19T11:31:49;4.92;;;3.77;;
22005;SDS011;11167;46.988;15.470;2023-04-19T11:33:51;4.58;;;3.83;;
22005;SDS011;11167;46.988;15.470;2023-04-19T11:35:52;3.87;;;3.47;;
22005;SDS011;11167;46.988;15.470;2023-04-19T11:37:53;3.87;;;3.50;;
22005;SDS011;11167;46.988;15.470;2023-04-19T11:39:55;4.87;;;3.58;;
22005;SDS011;11167;46.988;15.470;2023-04-19T11:41:57;4.22;;;3.83;;
22005;SDS011;11167;46.988;15.470;2023-04-19T11:46:20;4.22;;;3.83;;
22005;SDS011;11167;46.988;15.470;2023-04-19T11:48:21;4.10;;;3.70;;
22005;SDS011;11167;46.988;15.470;2023-04-19T11:50:56;4.53;;;3.90;;
22005;SDS011;11167;46.988;15.470;2023-04-19T11:52:35;5.33;;;3.85;;
22005;SDS011;11167;46.988;15.470;2023-04-19T11:54:37;3.40;;;3.10;;
22005;SDS011;11167;46.988;15.470;2023-04-19T11:56:55;3.95;;;3.55;;
22005;SDS011;11167;46.988;15.470;2023-04-19T11:58:58;4.92;;;4.00;;
22005;SDS011;11167;46.988;15.470;2023-04-19T12:01:04;3.95;;;3.55;;
22005;SDS011;11167;46.988;15.470;2023-04-19T12:03:07;3.92;;;3.40;;
22005;SDS011;11167;46.988;15.470;2023-04-19T12:05:11;3.80;;;3.50;;
22005;SDS011;11167;46.988;15.470;2023-04-19T12:07:14;3.80;;;3.50;;
22005;SDS011;11167;46.988;15.470;2023-04-19T12:09:15;4.00;;;3.60;;
22005;SDS011;11167;46.988;15.470;2023-04-19T12:11:40;4.60;;;4.03;;
22005;SDS011;11167;46.988;15.470;2023-04-19T12:13:42;3.98;;;3.58;;
22005;SDS011;11167;46.988;15.470;2023-04-19T12:15:44;5.70;;;4.55;;
22005;SDS011;11167;46.988;15.470;2023-04-19T12:18:06;5.55;;;4.35;;
22005;SDS011;11167;46.988;15.470;2023-04-19T12:20:08;4.83;;;4.33;;
22005;SDS011;11167;46.988;15.470;2023-04-19T12:22:10;5.05;;;3.92;;
22005;SDS011;11167;46.988;15.470;2023-04-19T12:24:16;5.00;;;4.35;;
22005;SDS011;11167;46.988;15.470;2023-04-19T12:26:17;4.60;;;4.12;;
22005;SDS011;11167;46.988;15.470;2023-04-19T12:28:19;5.03;;;4.30;;